Aérodrome :
LOGIN :

S'inscrire | Disclaimer

   EN    FR    IT 

 










Légende :    VFR   VFR Marginal   IFR   IFR Intensif   IFR Très Intensif
Visi : 
Plafond : 
>= 8 km
>= 3000ft
5 à 8 km
1000 à 3000 ft
1500m à 5 km
500 à 1000 ft
800 à 1500m
200 à 500 ft
< 800m
< 200 ft
Symboles :   Orages  Brouillard  Fortes neiges  Fortes précipitations  Vent > 20 kt
SIGMETs :   Divers  Orages  Givrage  Turbulence  Onde Orograph.  Cendres Volcan.







- Altitude de l'aérodrome : 194 ft
- Code IATA : ANE
- Voir les cartes d'approche


LFJR - Angers Marcé

DERNIER METAR :
  • 221030Z AUTO VRB02KT 9999 BKN030 OVC098 04/04 Q1008 TEMPO 3000 -RA BKN004

METARs EXPIRÉS :
  • 221000Z AUTO VRB02KT 9999 FEW023 BKN050 BKN074 04/03 Q1008 TEMPO 3000 -RA BKN004
  • 220930Z AUTO 00000KT 5000 -RA BR SCT027/// BKN034/// BKN045/// ///TCU 04/03 Q1008 TEMPO BKN004
  • 220900Z AUTO VRB02KT 9000 -RA SCT006/// BKN019/// BKN031/// ///TCU 04/03 Q1008 TEMPO 3000 -RA BKN004
  • 220830Z AUTO 17006KT 140V200 4000 RA BR BKN005/// BKN009/// BKN020/// ///CB 03/03 Q1007 TEMPO NSW BKN004
  • 220800Z AUTO 16009KT 4700 -RA BR OVC004/// ///CB 03/03 Q1007 BECMG 9999 NSW SCT010 BKN100
  • 220730Z AUTO 16008KT 3900 -RA BR OVC004 03/03 Q1008 BECMG 9999 NSW SCT010 BKN100

TAF TAF LFJR
Valide du 22 à 09h jusqu'au 22 à 18h UTC


220800Z 2209/2218 18007KT 8000 SCT008 BKN030
TEMPO 2209/2212 3000 -RA BKN004
Pas de NOTAMs connus pour ce terrain.



MET'MAP, la Météo Aéronautique d'un coup d'oeil ! - Copyright ORBIFLY Décembre 2007 - Disclaimer

ORBIFLY MET'MAP TEAM :

Programmation & Développement : Alexandra Zaïnal
Conception & Développement : Baudouin d'Aumeries
Co-Programmation & Développement : Marc-Olivier Méhu
Soutien technique & logistique : Manuel Goepfert

Contact : metmap@orbifly.com




SOURCES & CREDITS :

   NOAA